sensor_id;sensor_type;location;lat;lon;timestamp;P1;durP1;ratioP1;P2;durP2;ratioP2
78670;SDS011;68277;52.724;6.516;2023-07-31T00:00:50;2.95;;;1.67;;
78670;SDS011;68277;52.724;6.516;2023-07-31T00:03:19;3.45;;;1.80;;
78670;SDS011;68277;52.724;6.516;2023-07-31T00:05:44;5.00;;;2.08;;
78670;SDS011;68277;52.724;6.516;2023-07-31T00:08:10;3.95;;;1.48;;
78670;SDS011;68277;52.724;6.516;2023-07-31T00:10:35;2.70;;;1.50;;
78670;SDS011;68277;52.724;6.516;2023-07-31T00:13:01;2.65;;;1.60;;
78670;SDS011;68277;52.724;6.516;2023-07-31T00:15:27;2.13;;;1.50;;
78670;SDS011;68277;52.724;6.516;2023-07-31T00:17:52;2.78;;;1.65;;
78670;SDS011;68277;52.724;6.516;2023-07-31T00:20:18;2.53;;;1.73;;
78670;SDS011;68277;52.724;6.516;2023-07-31T00:22:43;3.25;;;1.60;;
78670;SDS011;68277;52.724;6.516;2023-07-31T00:25:09;3.50;;;1.67;;
78670;SDS011;68277;52.724;6.516;2023-07-31T00:27:34;3.28;;;1.77;;
78670;SDS011;68277;52.724;6.516;2023-07-31T00:30:00;4.60;;;2.05;;
78670;SDS011;68277;52.724;6.516;2023-07-31T00:32:26;2.55;;;1.60;;
78670;SDS011;68277;52.724;6.516;2023-07-31T00:34:52;4.25;;;1.60;;
78670;SDS011;68277;52.724;6.516;2023-07-31T00:37:18;2.90;;;1.58;;
78670;SDS011;68277;52.724;6.516;2023-07-31T00:39:47;2.10;;;1.30;;
78670;SDS011;68277;52.724;6.516;2023-07-31T00:42:13;2.60;;;1.33;;
78670;SDS011;68277;52.724;6.516;2023-07-31T00:44:38;2.42;;;1.38;;
78670;SDS011;68277;52.724;6.516;2023-07-31T00:47:04;2.88;;;1.33;;
78670;SDS011;68277;52.724;6.516;2023-07-31T00:49:30;3.60;;;1.40;;
78670;SDS011;68277;52.724;6.516;2023-07-31T00:51:56;2.00;;;1.23;;
78670;SDS011;68277;52.724;6.516;2023-07-31T00:54:24;2.63;;;1.20;;
78670;SDS011;68277;52.724;6.516;2023-07-31T00:56:49;2.83;;;1.35;;
78670;SDS011;68277;52.724;6.516;2023-07-31T00:59:21;2.30;;;1.30;;
78670;SDS011;68277;52.724;6.516;2023-07-31T01:01:46;3.15;;;1.50;;
78670;SDS011;68277;52.724;6.516;2023-07-31T01:04:12;1.67;;;0.90;;
78670;SDS011;68277;52.724;6.516;2023-07-31T01:06:47;2.45;;;1.45;;
78670;SDS011;68277;52.724;6.516;2023-07-31T01:12:15;1.85;;;1.00;;
78670;SDS011;68277;52.724;6.516;2023-07-31T01:15:02;2.03;;;0.98;;
78670;SDS011;68277;52.724;6.516;2023-07-31T01:17:36;1.45;;;1.13;;
78670;SDS011;68277;52.724;6.516;2023-07-31T01:20:04;2.00;;;0.93;;
78670;SDS011;68277;52.724;6.516;2023-07-31T01:28:13;2.80;;;1.80;;
78670;SDS011;68277;52.724;6.516;2023-07-31T01:31:01;3.45;;;0.90;;
78670;SDS011;68277;52.724;6.516;2023-07-31T01:33:30;2.50;;;1.58;;
78670;SDS011;68277;52.724;6.516;2023-07-31T01:35:56;1.30;;;0.75;;
78670;SDS011;68277;52.724;6.516;2023-07-31T01:38:22;1.50;;;0.90;;
78670;SDS011;68277;52.724;6.516;2023-07-31T01:40:52;1.52;;;0.90;;
78670;SDS011;68277;52.724;6.516;2023-07-31T01:43:18;0.95;;;0.65;;
78670;SDS011;68277;52.724;6.516;2023-07-31T01:45:44;1.83;;;0.90;;
78670;SDS011;68277;52.724;6.516;2023-07-31T01:48:10;3.88;;;1.10;;
78670;SDS011;68277;52.724;6.516;2023-07-31T01:50:35;1.83;;;0.90;;
78670;SDS011;68277;52.724;6.516;2023-07-31T01:53:01;2.45;;;1.17;;
78670;SDS011;68277;52.724;6.516;2023-07-31T01:55:26;1.63;;;0.85;;
78670;SDS011;68277;52.724;6.516;2023-07-31T01:57:52;2.80;;;1.10;;
78670;SDS011;68277;52.724;6.516;2023-07-31T02:00:19;2.10;;;1.20;;
78670;SDS011;68277;52.724;6.516;2023-07-31T02:02:45;1.30;;;0.90;;
78670;SDS011;68277;52.724;6.516;2023-07-31T02:05:10;1.33;;;0.77;;
78670;SDS011;68277;52.724;6.516;2023-07-31T02:07:36;2.50;;;1.38;;
78670;SDS011;68277;52.724;6.516;2023-07-31T02:10:05;1.73;;;1.00;;
78670;SDS011;68277;52.724;6.516;2023-07-31T02:12:37;1.58;;;1.02;;
78670;SDS011;68277;52.724;6.516;2023-07-31T02:15:03;1.35;;;0.80;;
78670;SDS011;68277;52.724;6.516;2023-07-31T02:17:29;1.58;;;0.85;;
78670;SDS011;68277;52.724;6.516;2023-07-31T02:19:55;1.30;;;0.90;;
78670;SDS011;68277;52.724;6.516;2023-07-31T02:22:20;1.15;;;0.63;;
78670;SDS011;68277;52.724;6.516;2023-07-31T02:24:46;1.60;;;0.90;;
78670;SDS011;68277;52.724;6.516;2023-07-31T02:27:11;1.48;;;1.02;;
78670;SDS011;68277;52.724;6.516;2023-07-31T02:29:37;1.63;;;0.90;;
78670;SDS011;68277;52.724;6.516;2023-07-31T02:32:02;1.70;;;0.93;;
78670;SDS011;68277;52.724;6.516;2023-07-31T02:36:54;2.47;;;1.10;;
78670;SDS011;68277;52.724;6.516;2023-07-31T02:39:20;2.08;;;1.40;;
78670;SDS011;68277;52.724;6.516;2023-07-31T02:41:46;2.20;;;0.95;;
78670;SDS011;68277;52.724;6.516;2023-07-31T02:44:12;4.40;;;1.33;;
78670;SDS011;68277;52.724;6.516;2023-07-31T02:46:39;2.38;;;1.30;;
78670;SDS011;68277;52.724;6.516;2023-07-31T02:49:05;2.78;;;1.13;;
78670;SDS011;68277;52.724;6.516;2023-07-31T02:51:31;1.73;;;1.20;;
78670;SDS011;68277;52.724;6.516;2023-07-31T02:53:56;3.17;;;1.02;;
78670;SDS011;68277;52.724;6.516;2023-07-31T02:56:22;2.85;;;1.45;;
78670;SDS011;68277;52.724;6.516;2023-07-31T02:58:47;2.92;;;1.02;;
78670;SDS011;68277;52.724;6.516;2023-07-31T03:01:13;1.90;;;1.30;;
78670;SDS011;68277;52.724;6.516;2023-07-31T03:03:40;2.17;;;1.20;;
78670;SDS011;68277;52.724;6.516;2023-07-31T03:06:06;1.80;;;1.10;;
78670;SDS011;68277;52.724;6.516;2023-07-31T03:08:32;1.20;;;0.88;;
78670;SDS011;68277;52.724;6.516;2023-07-31T03:10:57;1.92;;;1.00;;
78670;SDS011;68277;52.724;6.516;2023-07-31T03:13:23;2.45;;;1.33;;
78670;SDS011;68277;52.724;6.516;2023-07-31T03:15:48;3.80;;;1.52;;
78670;SDS011;68277;52.724;6.516;2023-07-31T03:18:16;2.30;;;1.40;;
78670;SDS011;68277;52.724;6.516;2023-07-31T03:20:42;1.73;;;1.05;;
78670;SDS011;68277;52.724;6.516;2023-07-31T03:23:09;2.13;;;1.23;;
78670;SDS011;68277;52.724;6.516;2023-07-31T03:25:34;3.08;;;1.35;;
78670;SDS011;68277;52.724;6.516;2023-07-31T03:28:00;2.55;;;1.15;;
78670;SDS011;68277;52.724;6.516;2023-07-31T03:30:25;2.03;;;0.85;;
78670;SDS011;68277;52.724;6.516;2023-07-31T03:32:51;1.45;;;0.90;;
78670;SDS011;68277;52.724;6.516;2023-07-31T03:35:16;1.60;;;0.90;;
78670;SDS011;68277;52.724;6.516;2023-07-31T03:37:42;2.38;;;1.10;;
78670;SDS011;68277;52.724;6.516;2023-07-31T03:40:07;2.35;;;1.05;;
78670;SDS011;68277;52.724;6.516;2023-07-31T03:42:33;2.70;;;1.20;;
78670;SDS011;68277;52.724;6.516;2023-07-31T03:44:59;1.33;;;0.85;;
78670;SDS011;68277;52.724;6.516;2023-07-31T03:47:25;2.00;;;1.10;;
78670;SDS011;68277;52.724;6.516;2023-07-31T03:49:53;2.30;;;1.10;;
78670;SDS011;68277;52.724;6.516;2023-07-31T03:52:18;2.33;;;1.10;;
78670;SDS011;68277;52.724;6.516;2023-07-31T03:54:44;2.17;;;1.20;;
78670;SDS011;68277;52.724;6.516;2023-07-31T03:57:10;2.38;;;1.50;;
78670;SDS011;68277;52.724;6.516;2023-07-31T03:59:36;1.85;;;1.15;;
78670;SDS011;68277;52.724;6.516;2023-07-31T04:02:04;3.00;;;1.42;;
78670;SDS011;68277;52.724;6.516;2023-07-31T04:04:29;3.63;;;1.35;;
78670;SDS011;68277;52.724;6.516;2023-07-31T04:06:55;2.42;;;1.35;;
78670;SDS011;68277;52.724;6.516;2023-07-31T04:09:20;2.28;;;1.35;;
78670;SDS011;68277;52.724;6.516;2023-07-31T04:11:46;2.72;;;1.17;;
78670;SDS011;68277;52.724;6.516;2023-07-31T04:14:11;1.25;;;0.85;;
78670;SDS011;68277;52.724;6.516;2023-07-31T04:16:37;1.45;;;0.90;;
78670;SDS011;68277;52.724;6.516;2023-07-31T04:19:03;1.73;;;0.98;;
78670;SDS011;68277;52.724;6.516;2023-07-31T04:21:29;3.13;;;1.27;;
78670;SDS011;68277;52.724;6.516;2023-07-31T04:23:55;3.33;;;1.30;;
78670;SDS011;68277;52.724;6.516;2023-07-31T04:26:21;6.40;;;1.85;;
78670;SDS011;68277;52.724;6.516;2023-07-31T04:28:47;3.75;;;1.35;;
78670;SDS011;68277;52.724;6.516;2023-07-31T04:31:12;4.00;;;1.90;;
78670;SDS011;68277;52.724;6.516;2023-07-31T04:33:38;2.85;;;1.50;;
78670;SDS011;68277;52.724;6.516;2023-07-31T04:36:04;10.63;;;2.80;;
78670;SDS011;68277;52.724;6.516;2023-07-31T04:40:55;14.05;;;4.00;;
78670;SDS011;68277;52.724;6.516;2023-07-31T04:43:20;8.57;;;2.63;;
78670;SDS011;68277;52.724;6.516;2023-07-31T04:45:46;13.40;;;3.20;;
78670;SDS011;68277;52.724;6.516;2023-07-31T04:48:15;11.13;;;3.30;;
78670;SDS011;68277;52.724;6.516;2023-07-31T04:50:41;15.18;;;3.42;;
78670;SDS011;68277;52.724;6.516;2023-07-31T04:53:06;11.60;;;3.92;;
78670;SDS011;68277;52.724;6.516;2023-07-31T04:55:31;12.57;;;3.70;;
78670;SDS011;68277;52.724;6.516;2023-07-31T04:57:58;12.88;;;4.43;;
78670;SDS011;68277;52.724;6.516;2023-07-31T05:00:24;13.15;;;4.40;;
78670;SDS011;68277;52.724;6.516;2023-07-31T05:02:49;9.77;;;3.90;;
78670;SDS011;68277;52.724;6.516;2023-07-31T05:05:15;15.10;;;4.88;;
78670;SDS011;68277;52.724;6.516;2023-07-31T05:07:40;13.98;;;4.57;;
78670;SDS011;68277;52.724;6.516;2023-07-31T05:10:06;15.50;;;3.83;;
78670;SDS011;68277;52.724;6.516;2023-07-31T05:12:32;15.50;;;4.20;;
78670;SDS011;68277;52.724;6.516;2023-07-31T05:14:57;11.68;;;4.40;;
78670;SDS011;68277;52.724;6.516;2023-07-31T05:17:23;18.42;;;4.72;;
78670;SDS011;68277;52.724;6.516;2023-07-31T05:19:48;12.55;;;4.13;;
78670;SDS011;68277;52.724;6.516;2023-07-31T05:22:13;19.38;;;4.72;;
78670;SDS011;68277;52.724;6.516;2023-07-31T05:24:39;15.57;;;5.10;;
78670;SDS011;68277;52.724;6.516;2023-07-31T05:27:05;11.63;;;4.10;;
78670;SDS011;68277;52.724;6.516;2023-07-31T05:29:31;17.67;;;4.15;;
78670;SDS011;68277;52.724;6.516;2023-07-31T05:31:58;20.40;;;5.05;;
78670;SDS011;68277;52.724;6.516;2023-07-31T05:34:24;13.73;;;4.65;;
78670;SDS011;68277;52.724;6.516;2023-07-31T05:36:50;20.13;;;5.32;;
78670;SDS011;68277;52.724;6.516;2023-07-31T05:39:15;15.30;;;4.40;;
78670;SDS011;68277;52.724;6.516;2023-07-31T05:41:41;13.27;;;3.72;;
78670;SDS011;68277;52.724;6.516;2023-07-31T05:44:06;17.23;;;5.30;;
78670;SDS011;68277;52.724;6.516;2023-07-31T05:46:32;22.67;;;5.63;;
78670;SDS011;68277;52.724;6.516;2023-07-31T05:48:58;15.13;;;4.65;;
78670;SDS011;68277;52.724;6.516;2023-07-31T05:51:26;13.27;;;4.95;;
78670;SDS011;68277;52.724;6.516;2023-07-31T05:56:17;14.93;;;4.95;;
78670;SDS011;68277;52.724;6.516;2023-07-31T05:58:43;12.13;;;4.00;;
78670;SDS011;68277;52.724;6.516;2023-07-31T06:01:08;19.92;;;5.63;;
78670;SDS011;68277;52.724;6.516;2023-07-31T06:03:37;11.75;;;4.63;;
78670;SDS011;68277;52.724;6.516;2023-07-31T06:08:53;19.92;;;5.22;;
78670;SDS011;68277;52.724;6.516;2023-07-31T06:11:21;10.05;;;4.18;;
78670;SDS011;68277;52.724;6.516;2023-07-31T06:13:48;15.18;;;4.35;;
78670;SDS011;68277;52.724;6.516;2023-07-31T06:18:40;12.95;;;5.00;;
78670;SDS011;68277;52.724;6.516;2023-07-31T06:21:07;16.80;;;5.15;;
78670;SDS011;68277;52.724;6.516;2023-07-31T06:23:32;18.67;;;5.22;;
78670;SDS011;68277;52.724;6.516;2023-07-31T06:25:58;15.50;;;5.53;;
78670;SDS011;68277;52.724;6.516;2023-07-31T06:28:27;13.40;;;5.30;;
78670;SDS011;68277;52.724;6.516;2023-07-31T06:30:54;17.08;;;6.28;;
78670;SDS011;68277;52.724;6.516;2023-07-31T06:33:20;14.93;;;5.90;;
78670;SDS011;68277;52.724;6.516;2023-07-31T06:35:45;16.35;;;5.25;;
78670;SDS011;68277;52.724;6.516;2023-07-31T06:38:11;19.42;;;5.70;;
78670;SDS011;68277;52.724;6.516;2023-07-31T06:40:36;17.77;;;6.38;;
78670;SDS011;68277;52.724;6.516;2023-07-31T06:43:02;16.02;;;6.00;;
78670;SDS011;68277;52.724;6.516;2023-07-31T06:45:36;17.13;;;6.00;;
78670;SDS011;68277;52.724;6.516;2023-07-31T06:48:05;14.40;;;6.43;;
78670;SDS011;68277;52.724;6.516;2023-07-31T06:50:33;13.52;;;5.10;;
78670;SDS011;68277;52.724;6.516;2023-07-31T06:52:59;17.92;;;5.72;;
78670;SDS011;68277;52.724;6.516;2023-07-31T06:55:25;14.15;;;5.25;;
78670;SDS011;68277;52.724;6.516;2023-07-31T06:57:52;13.55;;;4.75;;
78670;SDS011;68277;52.724;6.516;2023-07-31T07:00:19;14.20;;;5.82;;
78670;SDS011;68277;52.724;6.516;2023-07-31T07:02:46;13.90;;;4.88;;
78670;SDS011;68277;52.724;6.516;2023-07-31T07:05:15;11.52;;;4.20;;
78670;SDS011;68277;52.724;6.516;2023-07-31T07:07:41;12.93;;;4.07;;
78670;SDS011;68277;52.724;6.516;2023-07-31T07:10:07;11.05;;;3.55;;
78670;SDS011;68277;52.724;6.516;2023-07-31T07:12:32;6.25;;;3.30;;
78670;SDS011;68277;52.724;6.516;2023-07-31T07:14:59;10.05;;;4.20;;
78670;SDS011;68277;52.724;6.516;2023-07-31T07:17:25;9.90;;;3.70;;
78670;SDS011;68277;52.724;6.516;2023-07-31T07:19:57;8.05;;;3.67;;
78670;SDS011;68277;52.724;6.516;2023-07-31T07:22:23;6.32;;;3.05;;
78670;SDS011;68277;52.724;6.516;2023-07-31T07:24:52;9.82;;;3.35;;
78670;SDS011;68277;52.724;6.516;2023-07-31T07:27:18;10.35;;;3.00;;
78670;SDS011;68277;52.724;6.516;2023-07-31T07:29:45;9.98;;;3.17;;
78670;SDS011;68277;52.724;6.516;2023-07-31T07:32:11;7.50;;;2.53;;
78670;SDS011;68277;52.724;6.516;2023-07-31T07:34:37;8.10;;;2.60;;
78670;SDS011;68277;52.724;6.516;2023-07-31T07:37:02;6.28;;;2.42;;
78670;SDS011;68277;52.724;6.516;2023-07-31T07:39:28;6.97;;;2.80;;
78670;SDS011;68277;52.724;6.516;2023-07-31T07:41:53;6.00;;;2.70;;
78670;SDS011;68277;52.724;6.516;2023-07-31T07:44:19;8.52;;;2.40;;
78670;SDS011;68277;52.724;6.516;2023-07-31T07:46:44;4.28;;;2.40;;
78670;SDS011;68277;52.724;6.516;2023-07-31T07:49:10;4.40;;;2.42;;
78670;SDS011;68277;52.724;6.516;2023-07-31T07:51:35;7.63;;;2.95;;
78670;SDS011;68277;52.724;6.516;2023-07-31T07:54:02;4.38;;;2.42;;
78670;SDS011;68277;52.724;6.516;2023-07-31T07:56:27;5.70;;;2.50;;
78670;SDS011;68277;52.724;6.516;2023-07-31T07:58:53;5.10;;;2.55;;
78670;SDS011;68277;52.724;6.516;2023-07-31T08:01:20;6.47;;;2.70;;
78670;SDS011;68277;52.724;6.516;2023-07-31T08:03:46;6.30;;;2.38;;
78670;SDS011;68277;52.724;6.516;2023-07-31T08:06:12;5.82;;;2.22;;
78670;SDS011;68277;52.724;6.516;2023-07-31T08:08:38;7.63;;;2.88;;
78670;SDS011;68277;52.724;6.516;2023-07-31T08:11:06;6.65;;;2.80;;
78670;SDS011;68277;52.724;6.516;2023-07-31T08:13:32;6.03;;;2.90;;
78670;SDS011;68277;52.724;6.516;2023-07-31T08:15:57;4.85;;;2.30;;
78670;SDS011;68277;52.724;6.516;2023-07-31T08:18:23;4.85;;;1.80;;
78670;SDS011;68277;52.724;6.516;2023-07-31T08:20:48;5.20;;;2.80;;
78670;SDS011;68277;52.724;6.516;2023-07-31T08:23:19;5.35;;;2.17;;
78670;SDS011;68277;52.724;6.516;2023-07-31T08:25:50;9.27;;;2.42;;
78670;SDS011;68277;52.724;6.516;2023-07-31T08:28:16;5.70;;;2.30;;
78670;SDS011;68277;52.724;6.516;2023-07-31T08:30:42;5.72;;;2.22;;
78670;SDS011;68277;52.724;6.516;2023-07-31T08:33:07;4.53;;;2.15;;
78670;SDS011;68277;52.724;6.516;2023-07-31T08:35:33;3.75;;;2.05;;
78670;SDS011;68277;52.724;6.516;2023-07-31T08:37:59;3.38;;;1.92;;
78670;SDS011;68277;52.724;6.516;2023-07-31T08:40:25;4.07;;;1.70;;
78670;SDS011;68277;52.724;6.516;2023-07-31T08:42:52;3.58;;;1.70;;
78670;SDS011;68277;52.724;6.516;2023-07-31T08:45:21;2.85;;;1.80;;
78670;SDS011;68277;52.724;6.516;2023-07-31T08:47:51;4.38;;;1.70;;
78670;SDS011;68277;52.724;6.516;2023-07-31T08:50:19;2.88;;;1.67;;
78670;SDS011;68277;52.724;6.516;2023-07-31T08:52:46;3.47;;;1.90;;
78670;SDS011;68277;52.724;6.516;2023-07-31T08:55:14;2.78;;;1.65;;
78670;SDS011;68277;52.724;6.516;2023-07-31T08:57:40;4.88;;;1.75;;
78670;SDS011;68277;52.724;6.516;2023-07-31T09:00:10;2.38;;;1.30;;
78670;SDS011;68277;52.724;6.516;2023-07-31T09:02:43;6.00;;;2.03;;
78670;SDS011;68277;52.724;6.516;2023-07-31T09:05:15;3.13;;;1.38;;
78670;SDS011;68277;52.724;6.516;2023-07-31T09:07:42;3.75;;;1.67;;
78670;SDS011;68277;52.724;6.516;2023-07-31T09:10:11;2.22;;;1.45;;
78670;SDS011;68277;52.724;6.516;2023-07-31T09:12:37;1.83;;;0.95;;
78670;SDS011;68277;52.724;6.516;2023-07-31T09:15:03;2.20;;;1.45;;
78670;SDS011;68277;52.724;6.516;2023-07-31T09:17:33;2.05;;;1.10;;
78670;SDS011;68277;52.724;6.516;2023-07-31T09:20:18;2.60;;;1.27;;
78670;SDS011;68277;52.724;6.516;2023-07-31T09:22:45;6.13;;;1.48;;
78670;SDS011;68277;52.724;6.516;2023-07-31T09:27:48;2.15;;;1.20;;
78670;SDS011;68277;52.724;6.516;2023-07-31T09:30:22;3.92;;;1.40;;
78670;SDS011;68277;52.724;6.516;2023-07-31T09:32:48;2.50;;;1.23;;
78670;SDS011;68277;52.724;6.516;2023-07-31T09:35:22;1.48;;;0.90;;
78670;SDS011;68277;52.724;6.516;2023-07-31T09:37:55;2.88;;;1.35;;
78670;SDS011;68277;52.724;6.516;2023-07-31T09:40:29;2.70;;;1.38;;
78670;SDS011;68277;52.724;6.516;2023-07-31T09:42:59;1.67;;;1.05;;
78670;SDS011;68277;52.724;6.516;2023-07-31T09:45:33;2.28;;;1.75;;
78670;SDS011;68277;52.724;6.516;2023-07-31T09:48:08;2.88;;;1.27;;
78670;SDS011;68277;52.724;6.516;2023-07-31T09:50:38;2.53;;;1.48;;
78670;SDS011;68277;52.724;6.516;2023-07-31T09:53:05;1.77;;;1.10;;
78670;SDS011;68277;52.724;6.516;2023-07-31T09:55:36;2.40;;;1.65;;
78670;SDS011;68277;52.724;6.516;2023-07-31T09:58:06;2.75;;;1.30;;
78670;SDS011;68277;52.724;6.516;2023-07-31T10:00:33;5.65;;;1.40;;
78670;SDS011;68277;52.724;6.516;2023-07-31T10:02:59;2.17;;;1.27;;
78670;SDS011;68277;52.724;6.516;2023-07-31T10:05:42;1.63;;;0.98;;
78670;SDS011;68277;52.724;6.516;2023-07-31T10:08:20;1.40;;;0.90;;
78670;SDS011;68277;52.724;6.516;2023-07-31T10:10:48;2.80;;;1.30;;
78670;SDS011;68277;52.724;6.516;2023-07-31T10:13:14;2.22;;;1.48;;
78670;SDS011;68277;52.724;6.516;2023-07-31T10:15:41;2.30;;;1.00;;
78670;SDS011;68277;52.724;6.516;2023-07-31T10:18:08;2.38;;;1.30;;
78670;SDS011;68277;52.724;6.516;2023-07-31T10:20:34;2.95;;;1.30;;
78670;SDS011;68277;52.724;6.516;2023-07-31T10:23:00;2.95;;;1.33;;
78670;SDS011;68277;52.724;6.516;2023-07-31T10:25:27;1.88;;;1.27;;
78670;SDS011;68277;52.724;6.516;2023-07-31T10:27:54;2.10;;;1.33;;
78670;SDS011;68277;52.724;6.516;2023-07-31T10:30:25;1.90;;;1.13;;
78670;SDS011;68277;52.724;6.516;2023-07-31T10:32:52;2.38;;;1.40;;
78670;SDS011;68277;52.724;6.516;2023-07-31T10:37:48;2.15;;;1.30;;
78670;SDS011;68277;52.724;6.516;2023-07-31T10:40:18;1.92;;;1.20;;
78670;SDS011;68277;52.724;6.516;2023-07-31T10:42:49;2.05;;;1.20;;
78670;SDS011;68277;52.724;6.516;2023-07-31T10:45:31;1.80;;;1.10;;
78670;SDS011;68277;52.724;6.516;2023-07-31T10:50:31;3.33;;;1.13;;
78670;SDS011;68277;52.724;6.516;2023-07-31T10:53:01;1.45;;;0.95;;
78670;SDS011;68277;52.724;6.516;2023-07-31T11:00:45;1.70;;;1.50;;
78670;SDS011;68277;52.724;6.516;2023-07-31T11:03:18;1.48;;;0.90;;
78670;SDS011;68277;52.724;6.516;2023-07-31T11:05:51;3.30;;;1.08;;
78670;SDS011;68277;52.724;6.516;2023-07-31T11:08:30;2.67;;;1.23;;
78670;SDS011;68277;52.724;6.516;2023-07-31T11:13:31;1.38;;;1.00;;
78670;SDS011;68277;52.724;6.516;2023-07-31T11:15:58;1.40;;;0.90;;
78670;SDS011;68277;52.724;6.516;2023-07-31T11:18:24;1.60;;;1.00;;
78670;SDS011;68277;52.724;6.516;2023-07-31T11:20:52;1.50;;;0.98;;
78670;SDS011;68277;52.724;6.516;2023-07-31T11:23:23;1.77;;;1.00;;
78670;SDS011;68277;52.724;6.516;2023-07-31T11:25:50;1.65;;;0.80;;
78670;SDS011;68277;52.724;6.516;2023-07-31T11:28:16;1.17;;;0.82;;
78670;SDS011;68277;52.724;6.516;2023-07-31T11:30:43;1.25;;;0.77;;
78670;SDS011;68277;52.724;6.516;2023-07-31T11:33:11;1.13;;;0.90;;
78670;SDS011;68277;52.724;6.516;2023-07-31T11:38:11;0.90;;;0.65;;
78670;SDS011;68277;52.724;6.516;2023-07-31T11:40:41;1.33;;;0.60;;
78670;SDS011;68277;52.724;6.516;2023-07-31T11:43:07;0.82;;;0.47;;
78670;SDS011;68277;52.724;6.516;2023-07-31T11:45:33;1.48;;;1.10;;
78670;SDS011;68277;52.724;6.516;2023-07-31T11:48:00;0.63;;;0.60;;
78670;SDS011;68277;52.724;6.516;2023-07-31T11:50:26;0.60;;;0.60;;
78670;SDS011;68277;52.724;6.516;2023-07-31T11:53:00;0.88;;;0.60;;
78670;SDS011;68277;52.724;6.516;2023-07-31T11:55:32;0.90;;;0.60;;
78670;SDS011;68277;52.724;6.516;2023-07-31T11:57:58;0.80;;;0.63;;
78670;SDS011;68277;52.724;6.516;2023-07-31T12:00:25;2.00;;;0.80;;
78670;SDS011;68277;52.724;6.516;2023-07-31T12:02:52;2.00;;;1.00;;
78670;SDS011;68277;52.724;6.516;2023-07-31T12:05:18;1.33;;;0.82;;
78670;SDS011;68277;52.724;6.516;2023-07-31T12:07:54;4.55;;;1.00;;
78670;SDS011;68277;52.724;6.516;2023-07-31T12:13:02;2.28;;;1.23;;
78670;SDS011;68277;52.724;6.516;2023-07-31T12:18:04;3.10;;;1.38;;
78670;SDS011;68277;52.724;6.516;2023-07-31T12:20:32;3.65;;;1.40;;
78670;SDS011;68277;52.724;6.516;2023-07-31T12:22:58;2.33;;;1.65;;
78670;SDS011;68277;52.724;6.516;2023-07-31T12:25:31;1.80;;;1.13;;
78670;SDS011;68277;52.724;6.516;2023-07-31T12:27:58;2.08;;;1.00;;
78670;SDS011;68277;52.724;6.516;2023-07-31T12:30:31;2.10;;;1.40;;
78670;SDS011;68277;52.724;6.516;2023-07-31T12:33:18;3.22;;;1.63;;
78670;SDS011;68277;52.724;6.516;2023-07-31T12:35:45;2.08;;;1.20;;
78670;SDS011;68277;52.724;6.516;2023-07-31T12:38:12;3.45;;;1.80;;
78670;SDS011;68277;52.724;6.516;2023-07-31T12:40:39;5.03;;;2.00;;
78670;SDS011;68277;52.724;6.516;2023-07-31T12:43:06;6.03;;;1.77;;
78670;SDS011;68277;52.724;6.516;2023-07-31T12:45:34;4.07;;;1.63;;
78670;SDS011;68277;52.724;6.516;2023-07-31T12:47:59;5.93;;;2.00;;
78670;SDS011;68277;52.724;6.516;2023-07-31T12:50:26;2.88;;;1.30;;
78670;SDS011;68277;52.724;6.516;2023-07-31T12:52:53;4.30;;;1.50;;
78670;SDS011;68277;52.724;6.516;2023-07-31T12:55:19;5.43;;;1.60;;
78670;SDS011;68277;52.724;6.516;2023-07-31T12:57:46;2.80;;;1.40;;
78670;SDS011;68277;52.724;6.516;2023-07-31T13:00:12;4.43;;;1.73;;
78670;SDS011;68277;52.724;6.516;2023-07-31T13:05:03;2.75;;;1.58;;
78670;SDS011;68277;52.724;6.516;2023-07-31T13:07:29;2.03;;;1.30;;
78670;SDS011;68277;52.724;6.516;2023-07-31T13:09:54;2.95;;;1.67;;
78670;SDS011;68277;52.724;6.516;2023-07-31T13:12:20;2.10;;;1.35;;
78670;SDS011;68277;52.724;6.516;2023-07-31T13:14:45;2.47;;;1.63;;
78670;SDS011;68277;52.724;6.516;2023-07-31T13:17:12;2.78;;;1.58;;
78670;SDS011;68277;52.724;6.516;2023-07-31T13:19:41;2.38;;;1.65;;
78670;SDS011;68277;52.724;6.516;2023-07-31T13:22:07;2.97;;;1.50;;
78670;SDS011;68277;52.724;6.516;2023-07-31T13:24:33;2.65;;;1.45;;
78670;SDS011;68277;52.724;6.516;2023-07-31T13:26:58;4.53;;;1.40;;
78670;SDS011;68277;52.724;6.516;2023-07-31T13:29:24;2.63;;;1.13;;
78670;SDS011;68277;52.724;6.516;2023-07-31T13:31:50;3.75;;;1.40;;
78670;SDS011;68277;52.724;6.516;2023-07-31T13:34:17;4.88;;;1.60;;
78670;SDS011;68277;52.724;6.516;2023-07-31T13:36:42;2.42;;;1.45;;
78670;SDS011;68277;52.724;6.516;2023-07-31T13:39:08;3.65;;;1.25;;
78670;SDS011;68277;52.724;6.516;2023-07-31T13:41:34;3.10;;;1.90;;
78670;SDS011;68277;52.724;6.516;2023-07-31T13:43:59;5.13;;;1.70;;
78670;SDS011;68277;52.724;6.516;2023-07-31T13:46:25;4.28;;;2.10;;
78670;SDS011;68277;52.724;6.516;2023-07-31T13:48:51;3.47;;;1.70;;
78670;SDS011;68277;52.724;6.516;2023-07-31T13:51:20;4.00;;;2.05;;
78670;SDS011;68277;52.724;6.516;2023-07-31T13:53:48;6.10;;;2.88;;
78670;SDS011;68277;52.724;6.516;2023-07-31T13:56:13;5.85;;;2.10;;
78670;SDS011;68277;52.724;6.516;2023-07-31T13:58:39;3.75;;;2.03;;
78670;SDS011;68277;52.724;6.516;2023-07-31T14:01:07;5.18;;;2.60;;
78670;SDS011;68277;52.724;6.516;2023-07-31T14:03:32;4.03;;;2.30;;
78670;SDS011;68277;52.724;6.516;2023-07-31T14:05:58;2.83;;;1.95;;
78670;SDS011;68277;52.724;6.516;2023-07-31T14:08:26;2.65;;;1.83;;
78670;SDS011;68277;52.724;6.516;2023-07-31T14:10:52;5.50;;;1.92;;
78670;SDS011;68277;52.724;6.516;2023-07-31T14:13:19;2.95;;;1.92;;
78670;SDS011;68277;52.724;6.516;2023-07-31T14:15:45;4.65;;;1.77;;
78670;SDS011;68277;52.724;6.516;2023-07-31T14:18:11;2.88;;;1.90;;
78670;SDS011;68277;52.724;6.516;2023-07-31T14:20:36;2.83;;;1.98;;
78670;SDS011;68277;52.724;6.516;2023-07-31T14:23:02;3.50;;;1.75;;
78670;SDS011;68277;52.724;6.516;2023-07-31T14:25:28;5.30;;;2.55;;
78670;SDS011;68277;52.724;6.516;2023-07-31T14:27:54;3.90;;;1.75;;
78670;SDS011;68277;52.724;6.516;2023-07-31T14:30:19;3.13;;;2.10;;
78670;SDS011;68277;52.724;6.516;2023-07-31T14:32:45;6.30;;;2.92;;
78670;SDS011;68277;52.724;6.516;2023-07-31T14:35:14;5.13;;;2.90;;
78670;SDS011;68277;52.724;6.516;2023-07-31T14:37:46;3.83;;;1.95;;
78670;SDS011;68277;52.724;6.516;2023-07-31T14:40:12;5.07;;;2.10;;
78670;SDS011;68277;52.724;6.516;2023-07-31T14:42:38;7.03;;;2.03;;
78670;SDS011;68277;52.724;6.516;2023-07-31T14:45:05;3.05;;;1.80;;
78670;SDS011;68277;52.724;6.516;2023-07-31T14:47:31;3.80;;;1.75;;
78670;SDS011;68277;52.724;6.516;2023-07-31T14:49:57;4.32;;;2.28;;
78670;SDS011;68277;52.724;6.516;2023-07-31T14:52:24;2.40;;;1.55;;
78670;SDS011;68277;52.724;6.516;2023-07-31T14:54:53;2.88;;;2.13;;
78670;SDS011;68277;52.724;6.516;2023-07-31T14:57:19;4.22;;;1.90;;
78670;SDS011;68277;52.724;6.516;2023-07-31T14:59:45;4.47;;;2.00;;
78670;SDS011;68277;52.724;6.516;2023-07-31T15:02:11;3.70;;;2.30;;
78670;SDS011;68277;52.724;6.516;2023-07-31T15:04:42;3.42;;;1.90;;
78670;SDS011;68277;52.724;6.516;2023-07-31T15:07:12;8.15;;;1.88;;
78670;SDS011;68277;52.724;6.516;2023-07-31T15:09:38;5.72;;;2.17;;
78670;SDS011;68277;52.724;6.516;2023-07-31T15:12:07;4.50;;;1.77;;
78670;SDS011;68277;52.724;6.516;2023-07-31T15:14:33;2.80;;;1.90;;
78670;SDS011;68277;52.724;6.516;2023-07-31T15:16:59;4.80;;;2.60;;
78670;SDS011;68277;52.724;6.516;2023-07-31T15:19:25;3.53;;;1.70;;
78670;SDS011;68277;52.724;6.516;2023-07-31T15:21:50;3.40;;;2.33;;
78670;SDS011;68277;52.724;6.516;2023-07-31T15:24:16;4.43;;;2.00;;
78670;SDS011;68277;52.724;6.516;2023-07-31T15:26:42;4.75;;;1.90;;
78670;SDS011;68277;52.724;6.516;2023-07-31T15:29:08;4.00;;;2.10;;
78670;SDS011;68277;52.724;6.516;2023-07-31T15:31:34;3.47;;;2.05;;